createdAt,value
2018-08-06T00:10:43.788Z,3.40
2018-08-06T00:13:11.999Z,3.87
2018-08-06T00:15:40.187Z,3.77
2018-08-06T00:18:09.296Z,3.75
2018-08-06T00:20:37.501Z,3.37
2018-08-06T00:23:06.330Z,3.90
2018-08-06T00:25:34.485Z,4.05
2018-08-06T00:28:02.705Z,3.43
2018-08-06T00:30:31.120Z,4.28
2018-08-06T00:33:02.711Z,3.97
2018-08-06T00:35:31.568Z,4.25
2018-08-06T00:37:59.792Z,3.20
2018-08-06T00:40:27.984Z,3.47
2018-08-06T00:42:56.193Z,3.47
2018-08-06T00:45:24.467Z,3.77
2018-08-06T00:47:52.604Z,4.47
2018-08-06T00:50:21.051Z,3.40
2018-08-06T00:52:49.300Z,3.93
2018-08-06T00:55:18.824Z,3.43
2018-08-06T00:57:47.088Z,4.03
2018-08-06T01:00:19.652Z,4.15
2018-08-06T01:02:51.716Z,3.70
2018-08-06T01:05:19.946Z,4.10
2018-08-06T01:07:48.152Z,4.10
2018-08-06T01:10:17.713Z,3.90
2018-08-06T01:12:46.870Z,4.03
2018-08-06T01:15:16.346Z,4.10
2018-08-06T01:17:49.102Z,3.63
2018-08-06T01:20:17.688Z,3.85
2018-08-06T01:22:46.244Z,4.10
2018-08-06T01:25:14.883Z,4.27
2018-08-06T01:27:42.891Z,4.27
2018-08-06T01:30:12.554Z,4.00
2018-08-06T01:32:40.804Z,4.23
2018-08-06T01:35:10.135Z,3.80
2018-08-06T01:37:38.598Z,3.83
2018-08-06T01:40:12.628Z,4.28
2018-08-06T01:42:41.339Z,3.63
2018-08-06T01:45:10.974Z,4.67
2018-08-06T01:47:39.394Z,4.60
2018-08-06T01:50:09.142Z,4.30
2018-08-06T01:52:37.363Z,4.37
2018-08-06T01:55:05.670Z,4.35
2018-08-06T01:57:34.512Z,4.37
2018-08-06T02:00:03.958Z,4.37
2018-08-06T02:02:32.188Z,4.50
2018-08-06T02:05:00.404Z,5.27
2018-08-06T02:07:28.664Z,4.57
2018-08-06T02:09:56.863Z,4.92
2018-08-06T02:12:25.099Z,5.40
2018-08-06T02:14:53.312Z,5.20
2018-08-06T02:17:21.531Z,5.70
2018-08-06T02:19:54.239Z,4.37
2018-08-06T02:22:26.399Z,5.40
2018-08-06T02:24:54.601Z,4.50
2018-08-06T02:27:22.911Z,4.90
2018-08-06T02:29:51.115Z,4.87
2018-08-06T02:32:19.356Z,5.13
2018-08-06T02:34:48.231Z,5.42
2018-08-06T02:37:19.460Z,5.03
2018-08-06T02:39:47.848Z,4.37
2018-08-06T02:42:16.135Z,5.07
2018-08-06T02:44:44.352Z,4.70
2018-08-06T02:47:12.552Z,5.15
2018-08-06T02:49:43.893Z,5.40
2018-08-06T02:52:12.975Z,6.10
2018-08-06T02:54:41.196Z,5.27
2018-08-06T02:57:09.393Z,5.33
2018-08-06T03:02:06.253Z,5.20
2018-08-06T03:04:38.168Z,5.07
2018-08-06T03:07:06.359Z,5.07
2018-08-06T03:09:35.528Z,5.07
2018-08-06T03:12:04.363Z,5.62
2018-08-06T03:14:33.147Z,5.90
2018-08-06T03:17:01.370Z,5.53
2018-08-06T03:19:29.664Z,5.80
2018-08-06T03:21:58.747Z,5.40
2018-08-06T03:24:26.910Z,6.00
2018-08-06T03:26:55.123Z,6.00
2018-08-06T03:29:23.462Z,6.05
2018-08-06T03:31:52.600Z,5.22
2018-08-06T03:34:20.786Z,6.58
2018-08-06T03:36:48.959Z,5.93
2018-08-06T03:39:17.160Z,5.83
2018-08-06T03:41:45.365Z,6.20
2018-08-06T03:44:13.563Z,6.70
2018-08-06T03:46:42.192Z,5.90
2018-08-06T03:49:10.433Z,6.50
2018-08-06T03:51:42.851Z,5.33
2018-08-06T03:54:11.159Z,5.93
2018-08-06T03:56:39.396Z,5.97
2018-08-06T03:59:09.005Z,5.90
2018-08-06T04:01:37.255Z,5.90
2018-08-06T04:04:06.175Z,6.60
2018-08-06T04:06:34.392Z,7.20
2018-08-06T04:09:07.212Z,6.05
2018-08-06T04:11:35.707Z,5.97
2018-08-06T04:14:03.939Z,6.33
2018-08-06T04:16:38.467Z,6.20
2018-08-06T04:19:07.303Z,7.40
2018-08-06T04:21:38.618Z,7.23
2018-08-06T04:24:07.334Z,6.57
2018-08-06T04:26:36.302Z,6.57
2018-08-06T04:29:05.221Z,6.05
2018-08-06T04:31:33.649Z,6.30
2018-08-06T04:34:02.255Z,7.40
2018-08-06T04:36:35.541Z,7.07
2018-08-06T04:39:05.768Z,6.50
2018-08-06T04:41:34.300Z,5.20
2018-08-06T04:44:02.627Z,5.70
2018-08-06T04:46:31.904Z,6.12
2018-08-06T04:49:01.612Z,5.28
2018-08-06T04:51:33.866Z,5.73
2018-08-06T04:54:02.119Z,6.20
2018-08-06T04:56:30.348Z,5.00
2018-08-06T04:58:58.583Z,5.47
2018-08-06T05:01:26.912Z,5.40
2018-08-06T05:03:55.144Z,5.60
2018-08-06T05:06:23.628Z,5.10
2018-08-06T05:08:55.916Z,4.63
2018-08-06T05:11:24.160Z,4.90
2018-08-06T05:13:52.478Z,4.67
2018-08-06T05:16:20.760Z,4.10
2018-08-06T05:18:49.025Z,4.67
2018-08-06T05:21:17.250Z,4.40
2018-08-06T05:23:55.227Z,4.30
2018-08-06T05:26:24.149Z,4.73
2018-08-06T05:28:53.462Z,4.70
2018-08-06T05:31:23.476Z,5.03
2018-08-06T05:33:52.921Z,5.20
2018-08-06T05:36:22.059Z,4.90
2018-08-06T05:38:51.050Z,5.12
2018-08-06T05:41:19.640Z,4.57
2018-08-06T05:43:47.954Z,4.53
2018-08-06T05:46:16.205Z,4.87
2018-08-06T05:48:44.422Z,4.93
2018-08-06T05:51:13.201Z,6.58
2018-08-06T05:53:44.449Z,4.67
2018-08-06T05:56:12.699Z,5.00
2018-08-06T05:58:41.869Z,5.05
2018-08-06T06:01:10.351Z,4.60
2018-08-06T06:03:38.668Z,6.00
2018-08-06T06:06:07.693Z,4.60
2018-08-06T06:08:36.451Z,4.33
2018-08-06T06:11:05.012Z,4.80
2018-08-06T06:13:33.411Z,4.13
2018-08-06T06:16:01.855Z,5.60
2018-08-06T06:18:30.880Z,5.60
2018-08-06T06:20:59.062Z,4.50
2018-08-06T06:23:27.654Z,4.02
2018-08-06T06:25:56.905Z,5.30
2018-08-06T06:28:25.164Z,5.70
2018-08-06T06:30:53.380Z,4.15
2018-08-06T06:33:21.679Z,5.40
2018-08-06T06:35:49.892Z,5.70
2018-08-06T06:38:18.327Z,5.23
2018-08-06T06:40:47.374Z,4.90
2018-08-06T06:43:15.731Z,5.83
2018-08-06T06:45:45.014Z,4.97
2018-08-06T06:48:14.619Z,5.10
2018-08-06T06:50:42.887Z,5.17
2018-08-06T06:53:11.192Z,5.00
2018-08-06T06:55:39.496Z,5.50
2018-08-06T06:58:08.795Z,4.17
2018-08-06T07:00:37.135Z,4.37
2018-08-06T07:03:06.389Z,4.53
2018-08-06T07:05:34.609Z,4.50
2018-08-06T07:08:02.824Z,5.17
2018-08-06T07:10:32.075Z,6.10
2018-08-06T07:13:00.295Z,4.47
2018-08-06T07:15:28.515Z,3.97
2018-08-06T07:17:57.491Z,4.08
2018-08-06T07:20:26.304Z,4.60
2018-08-06T07:22:54.479Z,4.53
2018-08-06T07:25:26.735Z,4.30
2018-08-06T07:27:54.979Z,4.73
2018-08-06T07:30:23.200Z,5.12
2018-08-06T07:32:51.439Z,3.93
2018-08-06T07:35:19.754Z,3.70
2018-08-06T07:37:48.021Z,4.17
2018-08-06T07:40:17.842Z,4.22
2018-08-06T07:42:47.100Z,4.03
2018-08-06T07:45:17.873Z,4.40
2018-08-06T07:47:46.765Z,3.97
2018-08-06T07:50:19.430Z,4.45
2018-08-06T07:52:48.732Z,4.10
2018-08-06T07:55:17.103Z,3.40
2018-08-06T07:57:46.089Z,3.83
2018-08-06T08:00:16.372Z,3.77
2018-08-06T08:02:44.644Z,3.45
2018-08-06T08:05:14.820Z,3.40
2018-08-06T08:07:45.439Z,3.40
2018-08-06T08:10:16.441Z,3.33
2018-08-06T08:12:45.308Z,2.95
2018-08-06T08:15:16.123Z,4.33
2018-08-06T08:17:45.974Z,3.50
2018-08-06T08:20:15.634Z,4.35
2018-08-06T08:22:44.088Z,4.75
2018-08-06T08:25:17.096Z,3.13
2018-08-06T08:27:46.099Z,2.83
2018-08-06T08:30:15.451Z,3.93
2018-08-06T08:32:43.687Z,3.70
2018-08-06T08:35:13.017Z,3.97
2018-08-06T08:37:41.376Z,2.55
2018-08-06T08:40:12.696Z,3.50
2018-08-06T08:42:42.085Z,3.67
2018-08-06T08:45:14.746Z,3.50
2018-08-06T08:47:44.271Z,3.62
2018-08-06T08:50:14.667Z,3.45
2018-08-06T08:52:43.258Z,3.53
2018-08-06T08:55:14.546Z,3.63
2018-08-06T08:57:42.904Z,3.10
2018-08-06T09:00:13.819Z,2.87
2018-08-06T09:02:43.963Z,3.67
2018-08-06T09:05:13.063Z,3.72
2018-08-06T09:07:41.339Z,4.30
2018-08-06T09:10:11.152Z,2.90
2018-08-06T09:12:39.732Z,3.00
2018-08-06T09:15:14.236Z,3.55
2018-08-06T09:17:42.836Z,2.73
2018-08-06T09:20:11.529Z,3.30
2018-08-06T09:22:40.576Z,3.67
2018-08-06T09:25:09.815Z,3.58
2018-08-06T09:27:39.089Z,3.10
2018-08-06T09:30:09.928Z,2.83
2018-08-06T09:32:40.012Z,3.45
2018-08-06T09:35:08.246Z,3.40
2018-08-06T09:37:36.466Z,2.67
2018-08-06T09:40:08.355Z,3.73
2018-08-06T09:42:36.583Z,3.05
2018-08-06T09:45:06.210Z,2.72
2018-08-06T09:47:34.491Z,7.10
2018-08-06T09:50:03.636Z,2.80
2018-08-06T09:52:31.924Z,2.90
2018-08-06T09:55:00.143Z,2.70
2018-08-06T09:57:29.413Z,3.13
2018-08-06T09:59:57.635Z,2.58
2018-08-06T10:02:26.679Z,2.80
2018-08-06T10:04:55.024Z,3.42
2018-08-06T10:07:24.702Z,2.73
2018-08-06T10:09:53.235Z,2.83
2018-08-06T10:12:25.643Z,3.33
2018-08-06T10:14:54.705Z,2.63
2018-08-06T10:17:22.921Z,2.62
2018-08-06T10:19:54.490Z,3.60
2018-08-06T10:22:22.464Z,3.10
2018-08-06T10:24:51.241Z,3.37
2018-08-06T10:27:22.255Z,3.20
2018-08-06T10:29:53.823Z,2.73
2018-08-06T10:32:22.160Z,2.17
2018-08-06T10:34:50.477Z,2.87
2018-08-06T10:37:18.752Z,2.80
2018-08-06T10:39:46.983Z,2.60
2018-08-06T10:42:19.980Z,2.50
2018-08-06T10:44:48.498Z,2.27
2018-08-06T10:47:17.505Z,2.97
2018-08-06T10:49:46.748Z,2.50
2018-08-06T10:52:14.933Z,2.20
2018-08-06T10:54:43.441Z,2.33
2018-08-06T10:57:12.960Z,2.92
2018-08-06T10:59:41.858Z,2.73
2018-08-06T11:02:09.909Z,3.00
2018-08-06T11:04:38.711Z,2.47
2018-08-06T11:07:07.564Z,2.35
2018-08-06T11:09:35.760Z,2.57
2018-08-06T11:12:04.708Z,2.35
2018-08-06T11:14:39.485Z,3.70
2018-08-06T11:17:09.503Z,2.98
2018-08-06T11:19:38.779Z,2.90
2018-08-06T11:22:07.179Z,2.67
2018-08-06T11:24:35.429Z,3.02
2018-08-06T11:27:03.733Z,3.27
2018-08-06T11:29:35.062Z,2.67
2018-08-06T11:32:03.931Z,3.07
2018-08-06T11:34:32.178Z,2.80
2018-08-06T11:37:00.407Z,3.22
2018-08-06T11:39:28.624Z,2.87
2018-08-06T11:41:57.979Z,3.35
2018-08-06T11:44:26.767Z,3.47
2018-08-06T11:46:54.988Z,3.33
2018-08-06T11:49:23.402Z,3.22
2018-08-06T11:51:51.587Z,3.10
2018-08-06T11:54:19.864Z,3.00
2018-08-06T11:56:50.120Z,3.87
2018-08-06T11:59:18.548Z,3.40
2018-08-06T12:01:47.360Z,2.52
2018-08-06T12:04:15.313Z,2.90
2018-08-06T12:06:43.515Z,4.30
2018-08-06T12:09:11.758Z,2.70
2018-08-06T12:11:40.155Z,3.40
2018-08-06T12:14:08.362Z,2.73
2018-08-06T12:16:36.607Z,2.87
2018-08-06T12:19:04.964Z,2.63
2018-08-06T12:21:33.159Z,3.05
2018-08-06T12:24:01.419Z,3.40
2018-08-06T12:26:29.696Z,3.02
2018-08-06T12:29:00.795Z,2.80
2018-08-06T12:31:29.116Z,3.10
2018-08-06T12:33:57.716Z,2.50
2018-08-06T12:36:25.950Z,3.00
2018-08-06T12:39:01.927Z,2.20
2018-08-06T12:41:30.282Z,2.60
2018-08-06T12:43:58.590Z,3.95
2018-08-06T12:46:26.911Z,2.67
2018-08-06T12:48:55.157Z,4.17
2018-08-06T12:51:23.530Z,2.73
2018-08-06T12:53:51.719Z,2.70
2018-08-06T12:56:19.930Z,3.17
2018-08-06T12:58:48.138Z,3.07
2018-08-06T13:01:16.619Z,2.67
2018-08-06T13:03:44.862Z,2.30
2018-08-06T13:06:13.120Z,2.80
2018-08-06T13:08:41.364Z,3.17
2018-08-06T13:11:09.579Z,2.33
2018-08-06T13:13:37.827Z,2.60
2018-08-06T13:16:06.248Z,2.50
2018-08-06T13:18:34.558Z,2.37
2018-08-06T13:21:02.747Z,3.00
2018-08-06T13:23:31.324Z,3.13
2018-08-06T13:25:59.553Z,2.90
2018-08-06T13:28:27.800Z,2.10
2018-08-06T13:30:59.863Z,2.50
2018-08-06T13:33:28.100Z,2.63
2018-08-06T13:35:57.424Z,3.10
2018-08-06T13:38:25.702Z,2.55
2018-08-06T13:40:54.599Z,2.80
2018-08-06T13:43:22.820Z,2.43
2018-08-06T13:45:56.082Z,2.02
2018-08-06T13:48:24.486Z,2.47
2018-08-06T13:50:52.741Z,2.77
2018-08-06T13:53:20.921Z,2.58
2018-08-06T13:55:49.137Z,2.50
2018-08-06T13:58:17.385Z,3.17
2018-08-06T14:00:49.211Z,3.03
2018-08-06T14:03:17.650Z,2.60
2018-08-06T14:05:45.656Z,3.07
2018-08-06T14:08:13.927Z,3.53
2018-08-06T14:10:42.218Z,2.87
2018-08-06T14:13:11.144Z,3.30
2018-08-06T14:15:39.375Z,3.37
2018-08-06T14:18:07.975Z,2.87
2018-08-06T14:20:36.200Z,3.35
2018-08-06T14:23:04.400Z,2.97
2018-08-06T14:25:32.695Z,2.43
2018-08-06T14:28:00.952Z,3.00
2018-08-06T14:30:29.141Z,2.70
2018-08-06T14:32:57.403Z,2.63
2018-08-06T14:35:30.092Z,3.27
2018-08-06T14:37:58.404Z,2.27
2018-08-06T14:40:26.679Z,2.08
2018-08-06T14:42:55.815Z,2.40
2018-08-06T14:45:24.055Z,2.87
2018-08-06T14:47:52.308Z,2.90
2018-08-06T14:50:20.514Z,2.97
2018-08-06T14:52:49.646Z,2.93
2018-08-06T14:55:17.875Z,3.20
2018-08-06T14:57:46.898Z,3.70
2018-08-06T15:00:18.505Z,3.03
2018-08-06T15:02:47.999Z,3.15
2018-08-06T15:05:16.919Z,2.92
2018-08-06T15:07:44.948Z,2.85
2018-08-06T15:10:13.891Z,2.20
2018-08-06T15:12:42.051Z,2.33
2018-08-06T15:15:12.705Z,3.00
2018-08-06T15:17:44.097Z,2.63
2018-08-06T15:20:14.423Z,2.53
2018-08-06T15:22:43.183Z,2.60
2018-08-06T15:25:15.672Z,2.37
2018-08-06T15:27:43.925Z,2.83
2018-08-06T15:30:12.278Z,3.47
2018-08-06T15:32:44.329Z,3.03
2018-08-06T15:35:13.055Z,3.47
2018-08-06T15:37:42.160Z,3.17
2018-08-06T15:40:12.327Z,3.27
2018-08-06T15:42:40.967Z,3.90
2018-08-06T15:45:10.162Z,3.20
2018-08-06T15:47:41.855Z,2.77
2018-08-06T15:50:15.298Z,2.20
2018-08-06T15:52:43.599Z,2.77
2018-08-06T15:55:11.838Z,2.62
2018-08-06T15:57:40.865Z,3.90
2018-08-06T16:00:10.926Z,2.67
2018-08-06T16:02:39.148Z,2.90
2018-08-06T16:05:16.091Z,3.20
2018-08-06T16:07:44.372Z,2.27
2018-08-06T16:10:13.202Z,3.00
2018-08-06T16:12:43.233Z,2.17
2018-08-06T16:15:13.119Z,2.23
2018-08-06T16:17:42.403Z,2.60
2018-08-06T16:20:12.766Z,2.87
2018-08-06T16:22:41.467Z,3.15
2018-08-06T16:25:11.071Z,3.70
2018-08-06T16:27:39.265Z,2.93
2018-08-06T16:30:13.154Z,3.83
2018-08-06T16:32:42.012Z,3.60
2018-08-06T16:35:10.153Z,3.67
2018-08-06T16:37:38.681Z,3.45
2018-08-06T16:40:07.902Z,2.83
2018-08-06T16:42:36.384Z,2.50
2018-08-06T16:45:05.505Z,3.30
2018-08-06T16:47:34.097Z,2.63
2018-08-06T16:50:02.482Z,2.93
2018-08-06T16:52:30.990Z,2.67
2018-08-06T16:54:59.271Z,2.73
2018-08-06T16:57:29.363Z,2.83
2018-08-06T16:59:59.113Z,3.33
2018-08-06T17:02:27.295Z,3.07
2018-08-06T17:04:58.598Z,2.57
2018-08-06T17:07:26.827Z,2.00
2018-08-06T17:09:55.879Z,3.00
2018-08-06T17:12:24.139Z,2.73
2018-08-06T17:14:52.647Z,2.43
2018-08-06T17:17:20.888Z,2.70
2018-08-06T17:19:53.256Z,2.70
2018-08-06T17:22:21.554Z,2.97
2018-08-06T17:24:49.779Z,2.40
2018-08-06T17:27:18.060Z,2.83
2018-08-06T17:29:46.292Z,2.20
2018-08-06T17:32:14.571Z,2.20
2018-08-06T17:34:48.224Z,3.10
2018-08-06T17:37:16.427Z,2.80
2018-08-06T17:39:44.647Z,2.77
2018-08-06T17:42:17.543Z,2.10
2018-08-06T17:44:45.831Z,2.23
2018-08-06T17:47:14.551Z,2.60
2018-08-06T17:49:49.911Z,2.10
2018-08-06T17:52:18.117Z,2.40
2018-08-06T17:54:46.444Z,2.50
2018-08-06T17:57:14.704Z,2.12
2018-08-06T17:59:42.976Z,2.83
2018-08-06T18:02:11.207Z,3.08
2018-08-06T18:04:46.551Z,2.77
2018-08-06T18:07:14.866Z,2.70
2018-08-06T18:09:43.151Z,2.60
2018-08-06T18:12:12.065Z,2.60
2018-08-06T18:14:40.898Z,3.00
2018-08-06T18:17:09.168Z,2.83
2018-08-06T18:19:41.404Z,3.63
2018-08-06T18:22:09.740Z,2.57
2018-08-06T18:24:37.993Z,3.37
2018-08-06T18:27:07.711Z,3.00
2018-08-06T18:29:36.893Z,2.90
2018-08-06T18:32:05.264Z,3.30
2018-08-06T18:34:33.470Z,4.10
2018-08-06T18:37:04.741Z,3.53
2018-08-06T18:39:33.447Z,3.03
2018-08-06T18:42:01.794Z,3.42
2018-08-06T18:44:30.338Z,3.20
2018-08-06T18:46:58.565Z,3.60
2018-08-06T18:49:27.172Z,3.70
2018-08-06T18:51:58.858Z,3.87
2018-08-06T18:54:27.240Z,4.58
2018-08-06T18:56:55.642Z,3.90
2018-08-06T18:59:23.908Z,4.53
2018-08-06T19:01:52.301Z,3.77
2018-08-06T19:04:21.579Z,4.27
2018-08-06T19:06:49.955Z,3.90
2018-08-06T19:09:19.155Z,3.67
2018-08-06T19:11:47.638Z,4.47
2018-08-06T19:14:21.685Z,4.50
2018-08-06T19:16:51.227Z,4.65
2018-08-06T19:19:24.054Z,5.07
2018-08-06T19:21:53.614Z,4.93
2018-08-06T19:24:27.318Z,4.03
2018-08-06T19:26:55.561Z,5.47
2018-08-06T19:29:25.089Z,4.45
2018-08-06T19:31:53.499Z,4.70
2018-08-06T19:34:22.053Z,4.20
2018-08-06T19:36:55.736Z,4.80
2018-08-06T19:39:23.990Z,4.95
2018-08-06T19:41:52.518Z,4.80
2018-08-06T19:44:21.010Z,5.00
2018-08-06T19:46:49.945Z,4.15
2018-08-06T19:49:23.557Z,5.00
2018-08-06T19:51:55.492Z,4.37
2018-08-06T19:54:23.778Z,4.40
2018-08-06T19:56:52.128Z,4.20
2018-08-06T19:59:21.325Z,5.07
2018-08-06T20:01:49.311Z,4.40
2018-08-06T20:04:17.627Z,4.87
2018-08-06T20:06:49.739Z,4.57
2018-08-06T20:09:17.950Z,4.50
2018-08-06T20:11:46.404Z,4.08
2018-08-06T20:14:14.615Z,4.80
2018-08-06T20:16:42.826Z,4.97
2018-08-06T20:19:11.575Z,5.88
2018-08-06T20:21:39.812Z,4.50
2018-08-06T20:24:08.021Z,5.40
2018-08-06T20:26:37.336Z,4.47
2018-08-06T20:29:06.323Z,5.20
2018-08-06T20:31:35.211Z,5.20
2018-08-06T20:34:03.758Z,5.13
2018-08-06T20:36:32.291Z,6.10
2018-08-06T20:39:02.292Z,4.90
2018-08-06T20:41:30.997Z,6.20
2018-08-06T20:43:59.640Z,5.17
2018-08-06T20:46:28.428Z,5.50
2018-08-06T20:48:56.929Z,5.90
2018-08-06T20:51:26.025Z,4.70
2018-08-06T20:53:54.224Z,6.17
2018-08-06T20:56:22.464Z,5.20
2018-08-06T20:58:51.084Z,6.62
2018-08-06T21:01:19.350Z,5.30
2018-08-06T21:03:49.145Z,5.22
2018-08-06T21:06:18.753Z,5.83
2018-08-06T21:08:47.952Z,4.50
2018-08-06T21:11:16.407Z,5.00
2018-08-06T21:13:44.708Z,5.90
2018-08-06T21:16:12.903Z,4.77
2018-08-06T21:18:41.368Z,4.37
2018-08-06T21:21:10.445Z,5.08
2018-08-06T21:23:38.659Z,4.70
2018-08-06T21:26:06.960Z,5.60
2018-08-06T21:28:36.798Z,5.75
2018-08-06T21:31:06.327Z,5.00
2018-08-06T21:33:35.014Z,5.53
2018-08-06T21:36:03.226Z,5.30
2018-08-06T21:38:31.432Z,5.00
2018-08-06T21:41:01.183Z,6.20
2018-08-06T21:43:30.111Z,5.00
2018-08-06T21:45:58.403Z,4.70
2018-08-06T21:48:27.159Z,4.90
2018-08-06T21:50:55.440Z,5.50
2018-08-06T21:53:23.661Z,4.83
2018-08-06T21:55:55.960Z,4.70
2018-08-06T21:58:24.830Z,5.03
2018-08-06T22:00:53.679Z,7.20
2018-08-06T22:03:21.676Z,6.00
2018-08-06T22:05:50.758Z,6.00
2018-08-06T22:10:53.836Z,5.23
2018-08-06T22:13:22.089Z,5.50
2018-08-06T22:15:50.408Z,4.93
2018-08-06T22:18:18.647Z,5.17
2018-08-06T22:20:46.982Z,5.63
2018-08-06T22:23:15.460Z,5.77
2018-08-06T22:25:44.046Z,4.90
2018-08-06T22:28:12.835Z,5.33
2018-08-06T22:30:41.964Z,5.07
2018-08-06T22:33:10.224Z,5.37
2018-08-06T22:35:38.483Z,5.20
2018-08-06T22:38:07.446Z,4.87
2018-08-06T22:40:37.025Z,4.47
2018-08-06T22:43:06.183Z,5.10
2018-08-06T22:45:34.589Z,4.62
2018-08-06T22:48:02.985Z,5.17
2018-08-06T22:50:31.087Z,5.12
2018-08-06T22:52:59.937Z,4.63
2018-08-06T22:55:28.193Z,4.97
2018-08-06T22:57:56.413Z,4.37
2018-08-06T23:00:24.586Z,5.50
2018-08-06T23:02:53.260Z,4.97
2018-08-06T23:05:21.518Z,5.22
2018-08-06T23:07:49.863Z,5.00
2018-08-06T23:10:18.859Z,5.43
2018-08-06T23:12:47.061Z,4.67
2018-08-06T23:15:16.542Z,5.15
2018-08-06T23:17:46.125Z,5.03
2018-08-06T23:20:14.328Z,4.70
2018-08-06T23:22:42.969Z,5.30
2018-08-06T23:25:12.889Z,5.23
2018-08-06T23:27:41.500Z,4.70
2018-08-06T23:30:13.638Z,5.58
2018-08-06T23:32:42.145Z,5.37
2018-08-06T23:35:12.539Z,5.53
2018-08-06T23:37:42.912Z,5.20
2018-08-06T23:40:16.304Z,5.40
2018-08-06T23:42:45.458Z,5.43
2018-08-06T23:45:14.899Z,6.07
2018-08-06T23:47:43.166Z,6.03
2018-08-06T23:50:13.065Z,6.30
2018-08-06T23:52:43.301Z,5.83
2018-08-06T23:55:12.927Z,5.62
2018-08-06T23:57:41.391Z,6.05
